Time;durP1;ratioP1;P1;durP2;ratioP2;P2;SDS_P1;SDS_P2;PMS_P1;PMS_P2;Temp;Humidity;BMP_temperature;BMP_pressure;BME280_temperature;BME280_humidity;BME280_pressure;Samples;Min_cycle;Max_cycle;Signal;HPM_P1;HPM_P2
2022/09/19 00:01:11;;;;;;;1.70;1.10;;;;;;;11.72;94.86;98078.91;4139372;28;20753;-85
2022/09/19 00:03:14;;;;;;;1.50;1.00;;;;;;;11.71;96.96;98075.44;4138345;28;20646;-85
2022/09/19 00:05:17;;;;;;;2.70;1.23;;;;;;;11.71;97.04;98082.47;4136409;28;20746;-85
2022/09/19 00:07:21;;;;;;;2.57;1.10;;;;;;;11.71;96.01;98092.91;4165968;28;20723;-85
2022/09/19 00:09:25;;;;;;;1.50;0.90;;;;;;;11.67;95.12;98092.31;4145576;28;20684;-85
2022/09/19 00:11:28;;;;;;;1.50;0.80;;;;;;;11.65;95.20;98095.97;4138225;28;20677;-85
2022/09/19 00:13:31;;;;;;;1.83;0.90;;;;;;;11.59;95.87;98099.03;4153509;28;20641;-85
2022/09/19 00:15:36;;;;;;;1.80;1.00;;;;;;;11.55;95.21;98095.81;4154180;28;20649;-85
2022/09/19 00:17:40;;;;;;;1.40;0.90;;;;;;;11.51;95.40;98090.91;4153889;28;20645;-85
2022/09/19 00:19:43;;;;;;;1.87;0.77;;;;;;;11.43;95.99;98083.59;4170804;28;20667;-85
2022/09/19 00:21:48;;;;;;;1.37;0.70;;;;;;;11.36;95.08;98094.59;4147925;28;20647;-85
2022/09/19 00:26:17;;;;;;;1.60;0.90;;;;;;;11.27;96.23;98101.31;4146624;28;20748;-85
2022/09/19 00:28:25;;;;;;;1.60;0.80;;;;;;;11.27;94.02;98110.91;4138769;28;20646;-86
2022/09/19 00:30:28;;;;;;;1.17;0.80;;;;;;;11.24;94.68;98105.06;4154135;28;21075;-85
2022/09/19 00:32:32;;;;;;;1.33;0.80;;;;;;;11.20;95.30;98101.88;4157785;28;21271;-85
2022/09/19 00:34:37;;;;;;;3.43;0.90;;;;;;;11.18;95.45;98098.50;4158557;28;20648;-85
2022/09/19 00:36:41;;;;;;;1.93;1.00;;;;;;;11.13;95.04;98095.38;4138374;28;20682;-85
2022/09/19 00:38:45;;;;;;;4.20;1.00;;;;;;;11.11;95.52;98102.50;4141520;28;20658;-85
2022/09/19 00:40:48;;;;;;;1.77;1.00;;;;;;;11.08;95.09;98107.09;4134366;28;20750;-85
2022/09/19 00:42:51;;;;;;;1.77;1.07;;;;;;;11.05;95.52;98102.94;4155458;28;20665;-85
2022/09/19 00:45:01;;;;;;;1.70;1.10;;;;;;;11.05;96.48;98105.53;4141403;28;20672;-85
2022/09/19 00:47:06;;;;;;;2.90;0.90;;;;;;;11.03;95.41;98104.78;4146777;28;20689;-85
2022/09/19 00:49:13;;;;;;;1.43;1.00;;;;;;;10.99;94.85;98102.50;4168213;28;20648;-85
2022/09/19 00:51:22;;;;;;;2.80;0.90;;;;;;;10.95;95.64;98107.09;4137231;28;20679;-85
2022/09/19 00:53:26;;;;;;;1.40;0.90;;;;;;;10.93;96.31;98105.53;4139225;28;20758;-85
2022/09/19 00:55:31;;;;;;;1.53;0.90;;;;;;;10.93;95.49;98109.00;4144440;28;20649;-85
2022/09/19 00:57:40;;;;;;;1.43;0.83;;;;;;;10.90;94.70;98117.03;4157309;28;20654;-85
2022/09/19 00:59:45;;;;;;;1.50;1.10;;;;;;;10.84;94.94;98119.25;4139134;28;20665;-85
2022/09/19 01:01:49;;;;;;;1.60;0.90;;;;;;;10.81;95.46;98122.91;4154662;28;21224;-85
2022/09/19 01:03:52;;;;;;;1.67;0.80;;;;;;;10.79;95.95;98128.31;4141742;28;20696;-85
2022/09/19 01:06:03;;;;;;;1.33;0.90;;;;;;;10.78;95.53;98129.25;4147142;28;21237;-85
2022/09/19 01:08:43;;;;;;;1.50;0.80;;;;;;;10.77;95.04;98127.59;4132352;28;20693;-85
2022/09/19 01:10:58;;;;;;;1.70;0.97;;;;;;;10.73;94.77;98126.94;4123692;28;21011;-85
2022/09/19 01:13:10;;;;;;;1.10;0.60;;;;;;;10.73;96.21;98124.34;4141416;28;21343;-85
2022/09/19 01:15:30;;;;;;;1.17;0.70;;;;;;;10.71;95.12;98128.84;4142942;28;20683;-85
2022/09/19 01:17:42;;;;;;;1.27;0.70;;;;;;;10.68;95.32;98131.66;4144406;28;21264;-85
2022/09/19 01:20:07;;;;;;;1.10;0.70;;;;;;;10.66;95.28;98143.13;4157546;28;21252;-85
2022/09/19 01:22:18;;;;;;;2.47;0.70;;;;;;;10.64;95.51;98139.78;4143747;28;20692;-85
2022/09/19 01:24:58;;;;;;;1.00;0.70;;;;;;;10.63;94.02;98135.50;4160656;28;20636;-85
2022/09/19 01:27:18;;;;;;;1.13;0.70;;;;;;;10.60;94.85;98139.19;4155530;28;20652;-85
2022/09/19 01:29:25;;;;;;;1.30;0.70;;;;;;;10.58;94.93;98142.81;4145452;28;21259;-85
2022/09/19 01:31:30;;;;;;;1.40;0.80;;;;;;;10.53;94.06;98142.28;4135356;28;21036;-85
2022/09/19 01:33:34;;;;;;;1.30;0.80;;;;;;;10.51;94.31;98144.19;4141480;28;21297;-85
2022/09/19 01:35:39;;;;;;;1.63;0.80;;;;;;;10.50;94.56;98150.31;4171801;28;20651;-85
2022/09/19 01:37:46;;;;;;;1.30;0.90;;;;;;;10.47;94.26;98153.97;4145664;28;21330;-85
2022/09/19 01:39:51;;;;;;;1.30;0.90;;;;;;;10.44;94.93;98150.75;4150432;28;20651;-85
2022/09/19 01:41:56;;;;;;;1.63;0.90;;;;;;;10.40;95.37;98154.47;4158383;28;20649;-85
2022/09/19 01:44:02;;;;;;;1.10;0.87;;;;;;;10.36;95.00;98153.03;4144126;28;20632;-84
2022/09/19 01:46:09;;;;;;;1.13;0.83;;;;;;;10.33;94.45;98158.44;4145772;28;20654;-85
2022/09/19 01:48:20;;;;;;;1.40;0.90;;;;;;;10.33;94.08;98150.63;4134307;28;20642;-85
2022/09/19 01:50:31;;;;;;;2.33;1.00;;;;;;;10.35;94.03;98159.16;4142826;28;20758;-85
2022/09/19 01:52:48;;;;;;;1.20;0.77;;;;;;;10.32;95.08;98156.75;4149912;28;21972;-85
2022/09/19 01:55:01;;;;;;;1.40;0.87;;;;;;;10.31;94.63;98149.03;4149987;28;20649;-85
2022/09/19 01:57:16;;;;;;;1.33;0.97;;;;;;;10.31;95.70;98149.03;4142512;28;20677;-84
2022/09/19 01:59:41;;;;;;;2.87;0.90;;;;;;;10.31;95.74;98149.88;4142210;28;20642;-85
2022/09/19 02:01:50;;;;;;;1.23;0.70;;;;;;;10.30;95.06;98147.38;4161624;28;20638;-85
2022/09/19 02:03:56;;;;;;;1.73;0.80;;;;;;;10.31;94.94;98154.25;4145234;28;20657;-85
2022/09/19 02:06:01;;;;;;;2.43;1.17;;;;;;;10.27;96.27;98161.44;4151649;28;20664;-85
2022/09/19 02:08:09;;;;;;;1.98;0.85;;;;;;;10.27;95.67;98158.00;4141901;28;21134;-85
2022/09/19 02:10:18;;;;;;;1.27;0.90;;;;;;;10.26;95.68;98167.59;4149183;28;20233;-85
2022/09/19 02:12:22;;;;;;;6.60;1.13;;;;;;;10.27;95.87;98158.00;4162270;28;20641;-85
2022/09/19 02:14:30;;;;;;;2.20;1.10;;;;;;;10.29;96.31;98161.34;4138227;28;21269;-85
2022/09/19 02:16:45;;;;;;;2.00;0.97;;;;;;;10.27;95.31;98169.28;4143077;28;20704;-85
2022/09/19 02:18:54;;;;;;;4.17;1.03;;;;;;;10.24;94.69;98173.81;4155645;28;20683;-85
2022/09/19 02:21:01;;;;;;;1.20;0.80;;;;;;;10.23;94.86;98174.78;4144545;28;20645;-85
2022/09/19 02:23:08;;;;;;;1.97;0.90;;;;;;;10.23;96.17;98177.41;4145614;28;20725;-85
2022/09/19 02:25:15;;;;;;;1.70;1.00;;;;;;;10.22;95.94;98168.72;4143665;28;20653;-85
2022/09/19 02:27:22;;;;;;;2.10;0.97;;;;;;;10.23;96.82;98169.56;4142082;28;20742;-85
2022/09/19 02:29:30;;;;;;;1.47;0.77;;;;;;;10.23;95.94;98167.78;4139176;28;20647;-85
2022/09/19 02:31:34;;;;;;;2.37;1.00;;;;;;;10.26;96.49;98172.81;4153642;28;21229;-85
2022/09/19 02:33:37;;;;;;;1.33;0.83;;;;;;;10.29;97.23;98172.59;4138732;28;20667;-85
2022/09/19 02:35:47;;;;;;;1.50;0.80;;;;;;;10.33;96.97;98174.09;4141479;28;20738;-85
2022/09/19 02:37:55;;;;;;;1.20;0.80;;;;;;;10.35;96.28;98173.03;4136654;28;20744;-85
2022/09/19 02:40:04;;;;;;;1.20;0.70;;;;;;;10.39;96.90;98168.47;4151629;28;20710;-85
2022/09/19 02:42:19;;;;;;;1.80;0.93;;;;;;;10.41;96.58;98174.41;4158751;28;20637;-85
2022/09/19 02:44:25;;;;;;;1.67;0.80;;;;;;;10.43;96.63;98175.97;4145234;28;21246;-85
2022/09/19 02:46:35;;;;;;;1.50;0.90;;;;;;;10.44;96.70;98176.81;4141474;28;20661;-85
2022/09/19 02:48:46;;;;;;;1.73;0.83;;;;;;;10.46;97.00;98177.53;4136997;28;20861;-85
2022/09/19 02:50:59;;;;;;;2.10;0.93;;;;;;;10.47;97.44;98177.44;4151302;28;20653;-85
2022/09/19 02:53:07;;;;;;;1.13;0.70;;;;;;;10.49;97.37;98183.41;4140815;28;20713;-85
2022/09/19 02:55:12;;;;;;;1.17;0.70;;;;;;;10.51;97.20;98186.72;4134287;28;20646;-85
2022/09/19 02:57:17;;;;;;;1.20;0.93;;;;;;;10.52;96.20;98185.78;4143551;28;21313;-85
2022/09/19 02:59:25;;;;;;;1.80;0.97;;;;;;;10.53;96.58;98191.84;4150221;28;20648;-85
2022/09/19 03:01:34;;;;;;;1.30;0.70;;;;;;;10.54;96.81;98188.28;4145569;28;20660;-85
2022/09/19 03:06:06;;;;;;;1.20;0.80;;;;;;;10.55;96.41;98188.19;4143244;28;20668;-85
2022/09/19 03:08:15;;;;;;;3.00;1.00;;;;;;;10.56;97.03;98191.63;4136399;28;20655;-85
2022/09/19 03:10:23;;;;;;;1.73;0.80;;;;;;;10.56;96.61;98189.03;4140780;28;20709;-85
2022/09/19 03:12:37;;;;;;;1.97;0.80;;;;;;;10.57;97.23;98193.28;4131800;28;20658;-85
2022/09/19 03:14:41;;;;;;;1.80;1.00;;;;;;;10.58;96.80;98202.78;4154026;28;20645;-85
2022/09/19 03:16:47;;;;;;;2.70;1.00;;;;;;;10.60;96.61;98206.97;4148975;28;20649;-86
2022/09/19 03:18:54;;;;;;;2.00;0.80;;;;;;;10.61;97.61;98210.41;4131144;28;20746;-85
2022/09/19 03:21:01;;;;;;;2.90;0.90;;;;;;;10.62;96.01;98206.88;4142500;28;20637;-85
2022/09/19 03:23:07;;;;;;;1.70;1.27;;;;;;;10.64;96.67;98207.59;4144525;28;20652;-85
2022/09/19 03:25:13;;;;;;;1.90;1.20;;;;;;;10.64;96.34;98211.03;4143266;28;21236;-85
2022/09/19 03:27:17;;;;;;;1.80;1.03;;;;;;;10.66;95.98;98208.31;4132028;28;20666;-85
2022/09/19 03:29:21;;;;;;;1.40;1.03;;;;;;;10.67;96.85;98204.78;4152978;28;20684;-85
2022/09/19 03:31:29;;;;;;;1.20;0.90;;;;;;;10.66;97.24;98197.88;4141076;28;20652;-85
2022/09/19 03:33:33;;;;;;;1.63;1.20;;;;;;;10.62;96.93;98210.31;4139207;28;20663;-85
2022/09/19 03:35:38;;;;;;;1.20;0.80;;;;;;;10.63;96.38;98198.94;4155758;28;20728;-85
2022/09/19 03:37:41;;;;;;;2.13;1.07;;;;;;;10.61;97.03;98206.03;4139043;28;21021;-85
2022/09/19 03:39:45;;;;;;;2.10;1.20;;;;;;;10.61;96.37;98213.03;4137638;28;20655;-85
2022/09/19 03:41:50;;;;;;;1.57;1.20;;;;;;;10.61;96.10;98213.84;4147362;28;20654;-85
2022/09/19 03:43:53;;;;;;;1.83;1.20;;;;;;;10.62;97.62;98212.09;4145479;28;20650;-85
2022/09/19 03:45:56;;;;;;;4.17;1.13;;;;;;;10.64;96.59;98210.22;4140994;28;20654;-85
2022/09/19 03:48:00;;;;;;;1.93;1.10;;;;;;;10.65;97.58;98212.72;4153646;28;20696;-85
2022/09/19 03:50:06;;;;;;;1.75;1.10;;;;;;;10.66;96.44;98205.72;4138214;28;20653;-85
2022/09/19 03:52:14;;;;;;;3.57;1.10;;;;;;;10.66;97.44;98201.34;4142242;28;20254;-84
2022/09/19 03:54:18;;;;;;;2.27;0.90;;;;;;;10.67;97.18;98210.00;4149658;28;20645;-85
2022/09/19 03:56:23;;;;;;;1.80;0.90;;;;;;;10.68;96.42;98204.69;4138638;28;21095;-85
2022/09/19 03:58:26;;;;;;;2.70;1.30;;;;;;;10.68;97.24;98209.06;4153838;28;20673;-85
2022/09/19 04:00:30;;;;;;;2.80;1.20;;;;;;;10.68;97.11;98212.50;4135716;28;21322;-85
2022/09/19 04:02:33;;;;;;;1.90;1.00;;;;;;;10.70;96.26;98220.22;4135385;28;20700;-85
2022/09/19 04:04:38;;;;;;;1.97;1.20;;;;;;;10.71;97.14;98221.91;4155820;28;20658;-85
2022/09/19 04:06:41;;;;;;;2.40;1.20;;;;;;;10.73;96.18;98227.84;4134982;28;20659;-85
2022/09/19 04:08:46;;;;;;;2.50;1.27;;;;;;;10.74;96.94;98239.97;4147444;28;20656;-85
2022/09/19 04:10:51;;;;;;;1.80;1.17;;;;;;;10.75;97.78;98237.25;4139859;28;21241;-85
2022/09/19 04:12:56;;;;;;;2.47;1.20;;;;;;;10.77;96.57;98231.94;4149334;28;20746;-85
2022/09/19 04:14:59;;;;;;;6.40;1.10;;;;;;;10.80;98.46;98238.59;4138341;28;20692;-86
2022/09/19 04:17:06;;;;;;;2.50;1.17;;;;;;;10.81;98.01;98239.47;4137390;28;21348;-85
2022/09/19 04:19:26;;;;;;;1.70;1.10;;;;;;;10.83;97.68;98248.84;4152706;28;20660;-86
2022/09/19 04:22:01;;;;;;;4.73;1.20;;;;;;;10.86;96.52;98248.63;4145603;28;20644;-86
2022/09/19 04:24:09;;;;;;;3.10;1.23;;;;;;;10.86;97.29;98240.81;4144666;28;20967;-86
2022/09/19 04:26:41;;;;;;;2.70;1.20;;;;;;;10.86;96.55;98245.19;4141209;28;21071;-86
2022/09/19 04:28:46;;;;;;;2.20;0.90;;;;;;;10.89;96.21;98253.66;4142494;28;20638;-85
2022/09/19 04:30:50;;;;;;;2.40;1.10;;;;;;;10.90;97.10;98239.69;4143141;28;20658;-85
2022/09/19 04:32:54;;;;;;;5.90;1.40;;;;;;;10.91;96.49;98237.88;4139122;28;21004;-85
2022/09/19 04:34:59;;;;;;;2.63;1.20;;;;;;;10.93;95.45;98239.47;4138648;28;20704;-86
2022/09/19 04:37:06;;;;;;;4.40;1.10;;;;;;;10.92;95.67;98237.78;4141989;28;20794;-86
2022/09/19 04:39:11;;;;;;;2.03;1.10;;;;;;;10.92;96.06;98248.22;4142237;28;20684;-86
2022/09/19 04:41:15;;;;;;;3.60;1.07;;;;;;;10.93;96.06;98249.91;4162565;28;20653;-85
2022/09/19 04:43:21;;;;;;;2.30;1.30;;;;;;;10.94;96.08;98251.56;4163643;28;20649;-86
2022/09/19 04:45:49;;;;;;;3.10;1.10;;;;;;;10.93;95.61;98256.88;4154796;28;20757;-86
2022/09/19 04:48:07;;;;;;;3.43;1.30;;;;;;;10.92;96.24;98261.28;4143080;28;20745;-86
2022/09/19 04:50:10;;;;;;;3.10;1.20;;;;;;;10.93;97.03;98265.56;4138641;28;20656;-86
2022/09/19 04:52:13;;;;;;;3.60;1.27;;;;;;;10.92;97.15;98257.84;4157059;28;21008;-85
2022/09/19 04:54:19;;;;;;;2.07;1.20;;;;;;;10.92;96.81;98257.84;4136473;28;20649;-85
2022/09/19 04:56:26;;;;;;;1.50;1.20;;;;;;;10.92;95.98;98261.28;4139249;28;20645;-85
2022/09/19 04:58:29;;;;;;;1.93;1.20;;;;;;;10.92;95.59;98269.09;4152329;28;20648;-89
2022/09/19 05:00:40;;;;;;;5.50;1.07;;;;;;;10.92;95.81;98257.84;4140588;28;20644;-86
2022/09/19 05:02:55;;;;;;;2.70;1.00;;;;;;;10.94;96.10;98266.38;4154554;28;21105;-87
2022/09/19 05:04:59;;;;;;;2.57;1.10;;;;;;;10.92;96.33;98271.72;4159471;28;20663;-86
2022/09/19 05:07:03;;;;;;;1.97;1.00;;;;;;;10.94;96.01;98263.78;4154530;28;20677;-87
2022/09/19 05:09:11;;;;;;;1.67;1.00;;;;;;;10.94;96.07;98261.16;4153685;28;20688;-87
2022/09/19 05:11:22;;;;;;;2.20;1.10;;;;;;;10.92;95.84;98268.28;4146825;28;20646;-87
2022/09/19 05:13:28;;;;;;;2.60;1.30;;;;;;;10.93;96.25;98277.75;4141428;28;20646;-87
2022/09/19 05:15:31;;;;;;;2.87;1.20;;;;;;;10.95;97.50;98276.72;4145038;28;20664;-87
2022/09/19 05:17:34;;;;;;;3.00;1.23;;;;;;;10.96;95.55;98286.22;4143849;28;20661;-87
2022/09/19 05:19:38;;;;;;;5.43;2.43;;;;;;;10.98;96.48;98283.53;4135097;28;20746;-87
2022/09/19 05:21:43;;;;;;;6.53;1.37;;;;;;;10.99;95.74;98291.25;4145738;28;20645;-86
2022/09/19 05:23:46;;;;;;;4.17;1.20;;;;;;;11.01;97.04;98294.59;4136626;28;20650;-87
2022/09/19 05:25:53;;;;;;;10.13;5.03;;;;;;;11.02;96.10;98291.03;4153143;28;20669;-87
2022/09/19 05:27:57;;;;;;;6.43;3.53;;;;;;;11.02;96.11;98301.47;4153296;28;20650;-86
2022/09/19 05:30:00;;;;;;;7.10;1.40;;;;;;;11.03;96.60;98313.56;4154620;28;20672;-86
2022/09/19 05:32:09;;;;;;;4.87;1.50;;;;;;;11.06;95.49;98315.16;4145375;28;20682;-87
2022/09/19 05:34:15;;;;;;;5.27;1.50;;;;;;;11.06;96.22;98309.94;4171543;28;20660;-87
2022/09/19 05:36:20;;;;;;;4.83;1.40;;;;;;;11.07;97.20;98311.63;4132111;28;20646;-86
2022/09/19 05:38:48;;;;;;;3.50;1.60;;;;;;;11.11;95.39;98315.69;4157448;28;21258;-86
2022/09/19 05:41:16;;;;;;;3.60;1.23;;;;;;;11.11;95.91;98311.31;4148618;28;20678;-86
2022/09/19 05:43:26;;;;;;;2.83;1.20;;;;;;;11.13;96.98;98319.03;4151798;28;20650;-86
2022/09/19 05:45:31;;;;;;;4.50;1.50;;;;;;;11.14;96.67;98321.53;4147740;28;20657;-86
2022/09/19 05:47:34;;;;;;;1.97;1.10;;;;;;;11.15;95.08;98327.59;4142111;28;21368;-86
2022/09/19 05:49:38;;;;;;;5.50;1.60;;;;;;;11.13;95.56;98330.31;4137945;28;20661;-86
2022/09/19 05:51:42;;;;;;;3.93;1.30;;;;;;;11.14;96.67;98332.00;4136121;28;20766;-88
2022/09/19 05:53:56;;;;;;;3.83;1.40;;;;;;;11.17;96.82;98331.78;4133893;28;20669;-85
2022/09/19 05:56:22;;;;;;;4.00;1.30;;;;;;;11.19;95.95;98335.13;4161118;28;20749;-86
2022/09/19 05:58:35;;;;;;;4.10;1.27;;;;;;;11.21;96.15;98342.84;4158537;28;21305;-86
2022/09/19 06:00:38;;;;;;;3.40;1.30;;;;;;;11.23;96.27;98341.81;4169461;28;20688;-86
2022/09/19 06:02:41;;;;;;;2.60;1.43;;;;;;;11.27;96.56;98342.44;4142080;28;20690;-86
2022/09/19 06:04:46;;;;;;;3.20;1.90;;;;;;;11.28;97.69;98347.56;4140866;28;20652;-86
2022/09/19 06:06:52;;;;;;;7.73;4.40;;;;;;;11.32;97.02;98349.00;4152118;28;20699;-86
2022/09/19 06:08:57;;;;;;;7.37;3.13;;;;;;;11.24;95.70;98343.47;4132009;28;20713;-86
2022/09/19 06:11:03;;;;;;;7.67;2.57;;;;;;;11.25;95.78;98360.00;4133806;28;20712;-86
2022/09/19 06:13:07;;;;;;;4.20;1.63;;;;;;;11.26;95.52;98354.66;4154751;28;20664;-86
2022/09/19 06:15:10;;;;;;;3.53;1.40;;;;;;;11.27;96.00;98364.16;4141300;28;20646;-87
2022/09/19 06:17:14;;;;;;;4.43;2.20;;;;;;;11.27;96.41;98357.19;4144615;28;20649;-87
2022/09/19 06:19:43;;;;;;;3.17;1.60;;;;;;;11.28;95.96;98355.41;4149965;28;20641;-86
2022/09/19 06:21:50;;;;;;;5.40;2.83;;;;;;;11.30;96.83;98354.31;4152855;28;21108;-87
2022/09/19 06:23:54;;;;;;;3.67;1.70;;;;;;;11.34;95.33;98360.22;4147653;28;20648;-86
2022/09/19 06:25:57;;;;;;;2.93;1.70;;;;;;;11.36;96.52;98353.91;4150465;28;21440;-86
2022/09/19 06:28:02;;;;;;;4.23;1.43;;;;;;;11.39;97.04;98368.56;4157261;28;20648;-86
2022/09/19 06:30:07;;;;;;;5.43;1.90;;;;;;;11.40;95.04;98375.47;4151353;28;20654;-86
2022/09/19 06:32:24;;;;;;;4.50;1.43;;;;;;;11.41;96.06;98372.75;4152663;28;20740;-86
2022/09/19 06:34:50;;;;;;;3.93;1.70;;;;;;;11.44;95.13;98376.91;4148817;28;20656;-86
2022/09/19 06:37:05;;;;;;;6.30;2.40;;;;;;;11.47;97.10;98371.50;4140667;28;20685;-86
2022/09/19 06:39:13;;;;;;;5.30;1.80;;;;;;;11.48;96.58;98374.03;4141864;28;20686;-86
2022/09/19 06:41:36;;;;;;;5.00;2.00;;;;;;;11.51;95.43;98370.38;4140490;28;20752;-86
2022/09/19 06:43:45;;;;;;;6.80;2.10;;;;;;;11.54;97.01;98375.41;4154926;28;20752;-86
2022/09/19 06:46:09;;;;;;;2.63;1.87;;;;;;;11.56;96.95;98381.34;4179994;28;20710;-86
2022/09/19 06:48:22;;;;;;;5.43;2.00;;;;;;;11.59;96.13;98386.34;4160023;28;20740;-86
2022/09/19 06:50:32;;;;;;;5.93;1.97;;;;;;;11.62;96.69;98388.75;4143640;28;20642;-86
2022/09/19 06:52:46;;;;;;;18.50;10.90;;;;;;;11.65;96.66;98386.81;4160981;28;20649;-86
2022/09/19 06:54:51;;;;;;;7.50;2.43;;;;;;;11.68;94.86;98393.56;4146723;28;21059;-86
2022/09/19 06:56:54;;;;;;;2.50;1.60;;;;;;;11.69;96.16;98398.69;4145348;28;20630;-86
2022/09/19 06:58:57;;;;;;;3.83;1.60;;;;;;;11.69;94.75;98395.25;4157255;28;20633;-86
2022/09/19 07:01:01;;;;;;;5.27;2.40;;;;;;;11.69;95.79;98400.50;4140328;28;20619;-86
2022/09/19 07:03:06;;;;;;;6.10;1.70;;;;;;;11.72;94.18;98405.50;4159715;28;20742;-85
2022/09/19 07:05:11;;;;;;;4.20;1.87;;;;;;;11.70;94.79;98404.75;4166787;28;20656;-85
2022/09/19 07:07:21;;;;;;;6.67;2.27;;;;;;;11.70;94.81;98407.38;4144321;28;20741;-85
2022/09/19 07:09:29;;;;;;;5.13;4.10;;;;;;;11.71;94.95;98411.66;4147160;28;20642;-85
2022/09/19 07:11:35;;;;;;;6.77;2.23;;;;;;;11.73;96.53;98423.69;4153344;28;20693;-85
2022/09/19 07:13:38;;;;;;;6.70;2.20;;;;;;;11.73;95.41;98420.22;4144966;28;20645;-85
2022/09/19 07:15:44;;;;;;;6.83;3.73;;;;;;;11.74;94.79;98422.72;4144132;28;20625;-85
2022/09/19 07:17:47;;;;;;;9.40;2.20;;;;;;;11.72;94.80;98423.78;4148439;28;20688;-84
2022/09/19 07:19:53;;;;;;;3.97;1.90;;;;;;;11.71;95.39;98422.94;4145885;28;20635;-85
2022/09/19 07:22:05;;;;;;;8.40;2.30;;;;;;;11.75;94.51;98428.81;4157886;28;20723;-85
2022/09/19 07:24:27;;;;;;;4.80;2.53;;;;;;;11.76;94.93;98424.31;4164652;28;20712;-86
2022/09/19 07:26:46;;;;;;;9.10;2.23;;;;;;;11.79;96.17;98420.66;4154273;28;20645;-86
2022/09/19 07:28:53;;;;;;;13.87;6.20;;;;;;;11.83;94.95;98427.34;4154774;28;21252;-86
2022/09/19 07:30:59;;;;;;;8.13;2.10;;;;;;;11.86;94.03;98429.75;4165497;28;20667;-86
2022/09/19 07:33:05;;;;;;;4.07;1.90;;;;;;;11.91;96.23;98425.06;4155379;28;21203;-86
2022/09/19 07:35:09;;;;;;;6.17;2.20;;;;;;;11.94;95.42;98438.75;4144162;28;20642;-86
2022/09/19 07:37:15;;;;;;;7.77;2.57;;;;;;;11.95;94.97;98431.72;4138591;28;20638;-86
2022/09/19 07:39:21;;;;;;;9.70;5.23;;;;;;;11.97;94.47;98435.09;4143010;28;21212;-86
2022/09/19 07:41:47;;;;;;;6.17;2.23;;;;;;;12.00;94.62;98440.94;4169568;28;20677;-86
2022/09/19 07:44:09;;;;;;;7.57;2.33;;;;;;;12.01;94.46;98447.84;4169709;28;21219;-86
2022/09/19 07:47:26;;;;;;;5.10;1.93;;;;;;;12.00;94.60;98446.16;4136615;28;20665;-87
2022/09/19 07:49:32;;;;;;;6.10;2.10;;;;;;;12.05;95.01;98446.69;4155056;28;20640;-84
2022/09/19 07:52:07;;;;;;;6.83;3.30;;;;;;;12.08;94.75;98450.88;4146582;28;20697;-83
2022/09/19 07:54:11;;;;;;;10.33;3.00;;;;;;;12.10;95.19;98462.88;4139676;28;20654;-86
2022/09/19 07:56:15;;;;;;;5.90;2.03;;;;;;;12.16;93.93;98466.88;4146463;28;20641;-85
2022/09/19 07:58:21;;;;;;;6.20;2.43;;;;;;;12.18;94.56;98470.22;4141242;28;20649;-86
2022/09/19 08:00:29;;;;;;;6.90;2.30;;;;;;;12.21;95.26;98475.22;4138117;28;20746;-86
2022/09/19 08:02:34;;;;;;;4.87;2.00;;;;;;;12.24;94.57;98468.84;4155556;28;20650;-85
2022/09/19 08:04:37;;;;;;;7.13;2.10;;;;;;;12.26;94.63;98472.19;4147345;28;20650;-86
2022/09/19 08:06:40;;;;;;;8.33;2.47;;;;;;;12.29;94.26;98474.59;4143133;28;20814;-83
2022/09/19 08:08:44;;;;;;;6.03;2.10;;;;;;;12.29;94.47;98476.38;4140422;28;20742;-84
2022/09/19 08:11:13;;;;;;;4.83;1.93;;;;;;;12.31;93.93;98487.56;4170308;28;20738;-84
2022/09/19 08:13:18;;;;;;;6.20;2.97;;;;;;;12.34;95.56;98482.13;4141590;28;20708;-84
2022/09/19 08:15:23;;;;;;;5.33;2.20;;;;;;;12.36;94.98;98488.09;4163821;28;21280;-84
2022/09/19 08:17:26;;;;;;;8.50;2.50;;;;;;;12.40;95.10;98482.56;4168654;28;20738;-84
2022/09/19 08:19:31;;;;;;;6.97;2.63;;;;;;;12.43;94.16;98487.59;4144021;28;20745;-85
2022/09/19 08:21:34;;;;;;;8.07;2.37;;;;;;;12.50;94.22;98490.59;4152848;28;20646;-85
2022/09/19 08:23:40;;;;;;;6.17;2.60;;;;;;;12.54;94.47;98484.19;4137773;28;20631;-85
2022/09/19 08:25:47;;;;;;;7.80;2.17;;;;;;;12.59;94.33;98492.56;4149752;28;20649;-84
2022/09/19 08:27:51;;;;;;;9.60;2.83;;;;;;;12.63;92.74;98483.53;4138232;28;20704;-85
2022/09/19 08:29:54;;;;;;;7.33;2.10;;;;;;;12.67;92.81;98498.94;4154793;28;20665;-84
2022/09/19 08:32:00;;;;;;;6.93;2.30;;;;;;;12.71;93.85;98492.53;4157186;28;20703;-85
2022/09/19 08:34:03;;;;;;;6.27;2.10;;;;;;;12.77;93.63;98492.94;4143468;28;20656;-85
2022/09/19 08:36:07;;;;;;;7.33;2.10;;;;;;;12.82;93.52;98498.75;4138680;28;20693;-84
2022/09/19 08:38:13;;;;;;;7.10;1.80;;;;;;;12.84;93.05;98504.69;4137679;28;20977;-84
2022/09/19 08:40:27;;;;;;;9.97;2.57;;;;;;;12.86;92.75;98504.59;4152427;28;21048;-86
2022/09/19 08:42:33;;;;;;;6.03;2.53;;;;;;;12.88;92.61;98503.50;4145500;28;21220;-84
2022/09/19 08:44:47;;;;;;;6.30;2.10;;;;;;;12.94;92.76;98513.56;4150288;28;20646;-83
2022/09/19 08:46:55;;;;;;;8.50;2.20;;;;;;;13.00;93.46;98510.50;4142705;28;20967;-84
2022/09/19 08:49:03;;;;;;;8.20;3.07;;;;;;;13.07;92.30;98516.16;4158546;28;21224;-87
2022/09/19 08:51:15;;;;;;;6.37;2.23;;;;;;;13.07;92.25;98521.41;4159388;28;21037;-85
2022/09/19 08:53:26;;;;;;;7.57;2.20;;;;;;;13.11;92.90;98523.69;4156211;28;21147;-84
2022/09/19 08:55:31;;;;;;;6.37;2.13;;;;;;;13.13;92.33;98529.66;4140814;28;21293;-83
2022/09/19 08:57:39;;;;;;;5.60;2.00;;;;;;;13.06;91.90;98522.34;4144098;28;20690;-84
2022/09/19 08:59:50;;;;;;;7.10;2.17;;;;;;;13.03;92.40;98519.94;4153806;28;20671;-83
2022/09/19 09:01:56;;;;;;;6.63;1.83;;;;;;;13.02;91.97;98523.47;4141531;28;20638;-85
2022/09/19 09:04:50;;;;;;;8.97;2.40;;;;;;;13.06;92.00;98528.41;4148814;28;20650;-84
2022/09/19 09:07:03;;;;;;;6.93;2.40;;;;;;;13.09;92.13;98529.97;4147980;28;20726;-83
2022/09/19 09:09:14;;;;;;;13.53;2.47;;;;;;;13.11;92.05;98525.44;4159928;28;21080;-83
2022/09/19 09:11:30;;;;;;;5.73;2.60;;;;;;;13.05;91.14;98526.75;4134194;28;20682;-84
2022/09/19 09:13:48;;;;;;;7.80;2.90;;;;;;;13.03;91.91;98533.03;4135685;28;21226;-86
2022/09/19 09:16:11;;;;;;;8.43;2.63;;;;;;;12.98;90.72;98529.91;4139356;28;20659;-86
2022/09/19 09:18:30;;;;;;;6.97;2.20;;;;;;;12.93;91.64;98524.13;4140900;28;20642;-84
2022/09/19 09:20:43;;;;;;;11.43;3.30;;;;;;;12.95;90.89;98528.31;4146203;28;20658;-84
2022/09/19 09:22:48;;;;;;;4.90;2.20;;;;;;;12.98;92.03;98527.28;4142600;28;20700;-84
2022/09/19 09:25:22;;;;;;;14.17;6.97;;;;;;;13.01;91.59;98529.69;4169472;28;20649;-85
2022/09/19 09:27:35;;;;;;;14.03;4.77;;;;;;;13.03;91.39;98526.00;4152600;28;20766;-84
2022/09/19 09:29:50;;;;;;;8.60;4.00;;;;;;;13.04;91.55;98540.78;4141593;28;20650;-85
2022/09/19 09:32:04;;;;;;;9.33;2.83;;;;;;;13.02;91.14;98534.81;4148752;28;20653;-85
2022/09/19 09:34:17;;;;;;;8.30;3.20;;;;;;;13.03;91.82;98539.09;4152844;28;20650;-85
2022/09/19 09:36:23;;;;;;;5.93;2.83;;;;;;;13.04;92.21;98538.16;4137776;28;20673;-85
2022/09/19 09:38:31;;;;;;;10.87;2.30;;;;;;;13.07;92.51;98537.94;4140141;28;21229;-84
2022/09/19 09:43:08;;;;;;;7.33;3.03;;;;;;;13.11;91.23;98530.69;4157222;28;20656;-85
2022/09/19 09:45:22;;;;;;;9.10;3.43;;;;;;;13.13;91.13;98540.13;4140318;28;20757;-85
2022/09/19 09:47:39;;;;;;;9.23;2.50;;;;;;;13.15;90.83;98534.78;4149340;28;20744;-85
2022/09/19 09:49:42;;;;;;;4.60;2.20;;;;;;;13.18;91.07;98535.38;4155301;28;20642;-85
2022/09/19 09:51:53;;;;;;;8.30;2.47;;;;;;;13.23;90.30;98541.97;4145208;28;20654;-85
2022/09/19 09:56:14;;;;;;;8.47;2.77;;;;;;;13.32;90.87;98543.06;4145117;28;20658;-85
2022/09/19 09:56:40;;;;;;;9.03;3.40;;;;;;;13.39;89.94;98546.94;4149736;28;20656;-85
2022/09/19 09:58:58;;;;;;;7.20;4.30;;;;;;;13.44;90.59;98547.44;4158032;28;21238;-85
2022/09/19 10:03:44;;;;;;;5.47;3.00;;;;;;;13.50;89.79;98542.59;4133779;28;20668;-85
2022/09/19 10:06:10;;;;;;;9.63;2.50;;;;;;;13.58;89.18;98544.66;4139918;28;20688;-85
2022/09/19 10:08:19;;;;;;;4.93;2.43;;;;;;;13.64;88.59;98538.97;4143774;28;20753;-85
2022/09/19 10:10:26;;;;;;;14.17;3.10;;;;;;;13.65;88.58;98547.56;4141646;28;20689;-85
2022/09/19 10:12:32;;;;;;;7.33;2.43;;;;;;;13.68;89.22;98544.72;4155494;28;20703;-85
2022/09/19 10:14:59;;;;;;;6.60;2.33;;;;;;;13.71;89.60;98547.13;4150452;28;21108;-85
2022/09/19 10:17:25;;;;;;;8.93;2.30;;;;;;;13.74;88.60;98541.66;4140840;28;20638;-85
2022/09/19 10:19:32;;;;;;;4.73;2.40;;;;;;;13.73;88.24;98539.97;4147419;28;20650;-85